Hauptseite
METAR-TAF:

METAR-TAF

Flughäfen :

Belmar / Farmingdale, New Jersey, Vereinigte Staaten

Breite: 40-11N, Länge: 074-08W, Höhe: 48 m

Beobachtung

Neuester Wetterbericht von vor 31 Minuten, um 19:56 UTC
Wind 5 kt aus Süd/Südwest
Temperatur 12°C
Luftfeuchtigkeit 94%
Luftdruck 1014 hPa
Sichtweite: 16.1 km
Geschlossene Wolkendecke in der Höhe von 1200 ft
Leichtregen

METAR: KBLM 091956Z AUTO 20005KT 10SM -RA OVC012 12/11 A2994 RMK AO2 SLP141 P0001 T01170111

Zeit: 15:27 (20:27 UTC)


TAF: fehlend

Wetterbeobachtungen und Prognosen von mehr als 4000 Flughäfen (METAR und TAF Bericht).

Die verfügbaren Stationen werden durch gelbe und rote Markierungen auf der Karte dargestellt.

Führen Sie die Maus auf sie, um den Namen der Station zu sehen.

Darauf klicken, um die Beobachtung von Wetterbeobachtungen und Prognosen zu sehen.

Um die Karte zu ändern : klicken Sie auf den grünen Tasten mit einem schwarzen Kreuz Zum Vergrößern, auf den grünen Button mit einem Gedankenstrich zu verkleinern, oder auf die grünen Pfeile für benachbarte Karten.


METAR-TAF: